sensor_id;sensor_type;location;lat;lon;timestamp;P1;durP1;ratioP1;P2;durP2;ratioP2
76752;SDS011;65687;51.308;16.916;2024-02-16T00:02:22;17.70;;;11.90;;
76752;SDS011;65687;51.308;16.916;2024-02-16T00:07:25;18.90;;;11.50;;
76752;SDS011;65687;51.308;16.916;2024-02-16T00:12:26;17.00;;;10.90;;
76752;SDS011;65687;51.308;16.916;2024-02-16T00:17:28;18.20;;;11.50;;
76752;SDS011;65687;51.308;16.916;2024-02-16T00:22:30;16.30;;;9.10;;
76752;SDS011;65687;51.308;16.916;2024-02-16T00:27:31;19.80;;;12.00;;
76752;SDS011;65687;51.308;16.916;2024-02-16T00:32:33;18.70;;;12.30;;
76752;SDS011;65687;51.308;16.916;2024-02-16T00:37:35;23.30;;;11.90;;
76752;SDS011;65687;51.308;16.916;2024-02-16T00:42:37;19.40;;;11.60;;
76752;SDS011;65687;51.308;16.916;2024-02-16T00:47:39;17.70;;;10.70;;
76752;SDS011;65687;51.308;16.916;2024-02-16T00:52:41;18.30;;;11.00;;
76752;SDS011;65687;51.308;16.916;2024-02-16T00:57:46;15.10;;;9.40;;
76752;SDS011;65687;51.308;16.916;2024-02-16T01:02:47;16.90;;;10.60;;
76752;SDS011;65687;51.308;16.916;2024-02-16T01:07:49;17.50;;;11.60;;
76752;SDS011;65687;51.308;16.916;2024-02-16T01:12:51;17.50;;;10.80;;
76752;SDS011;65687;51.308;16.916;2024-02-16T01:17:53;17.40;;;10.80;;
76752;SDS011;65687;51.308;16.916;2024-02-16T01:22:55;15.10;;;9.20;;
76752;SDS011;65687;51.308;16.916;2024-02-16T01:27:57;13.40;;;8.80;;
76752;SDS011;65687;51.308;16.916;2024-02-16T01:32:59;19.10;;;11.80;;
76752;SDS011;65687;51.308;16.916;2024-02-16T01:38:01;19.30;;;11.50;;
76752;SDS011;65687;51.308;16.916;2024-02-16T01:43:03;15.60;;;9.50;;
76752;SDS011;65687;51.308;16.916;2024-02-16T01:48:05;22.60;;;10.60;;
76752;SDS011;65687;51.308;16.916;2024-02-16T01:53:07;17.10;;;10.50;;
76752;SDS011;65687;51.308;16.916;2024-02-16T01:58:10;21.90;;;12.10;;
76752;SDS011;65687;51.308;16.916;2024-02-16T02:03:13;20.60;;;11.90;;
76752;SDS011;65687;51.308;16.916;2024-02-16T02:08:17;20.20;;;12.00;;
76752;SDS011;65687;51.308;16.916;2024-02-16T02:13:19;19.30;;;11.40;;
76752;SDS011;65687;51.308;16.916;2024-02-16T02:18:23;23.40;;;12.70;;
76752;SDS011;65687;51.308;16.916;2024-02-16T02:23:24;16.60;;;10.80;;
76752;SDS011;65687;51.308;16.916;2024-02-16T02:28:26;18.30;;;11.10;;
76752;SDS011;65687;51.308;16.916;2024-02-16T02:33:28;18.80;;;10.80;;
76752;SDS011;65687;51.308;16.916;2024-02-16T02:38:30;18.70;;;10.00;;
76752;SDS011;65687;51.308;16.916;2024-02-16T02:43:31;16.00;;;9.30;;
76752;SDS011;65687;51.308;16.916;2024-02-16T02:48:33;19.10;;;11.30;;
76752;SDS011;65687;51.308;16.916;2024-02-16T02:53:35;20.70;;;11.40;;
76752;SDS011;65687;51.308;16.916;2024-02-16T02:58:38;18.50;;;10.80;;
76752;SDS011;65687;51.308;16.916;2024-02-16T03:03:40;16.50;;;9.90;;
76752;SDS011;65687;51.308;16.916;2024-02-16T03:08:44;18.70;;;11.30;;
76752;SDS011;65687;51.308;16.916;2024-02-16T03:13:46;18.10;;;10.30;;
76752;SDS011;65687;51.308;16.916;2024-02-16T03:18:48;13.20;;;8.80;;
76752;SDS011;65687;51.308;16.916;2024-02-16T03:23:51;17.70;;;9.50;;
76752;SDS011;65687;51.308;16.916;2024-02-16T03:28:52;17.90;;;10.40;;
76752;SDS011;65687;51.308;16.916;2024-02-16T03:33:54;18.10;;;10.80;;
76752;SDS011;65687;51.308;16.916;2024-02-16T03:38:56;20.30;;;8.50;;
76752;SDS011;65687;51.308;16.916;2024-02-16T03:43:58;16.40;;;9.10;;
76752;SDS011;65687;51.308;16.916;2024-02-16T03:49:00;16.10;;;9.00;;
76752;SDS011;65687;51.308;16.916;2024-02-16T03:54:01;18.10;;;8.70;;
76752;SDS011;65687;51.308;16.916;2024-02-16T03:59:05;13.60;;;8.30;;
76752;SDS011;65687;51.308;16.916;2024-02-16T04:04:07;16.10;;;9.00;;
76752;SDS011;65687;51.308;16.916;2024-02-16T04:09:08;16.30;;;9.60;;
76752;SDS011;65687;51.308;16.916;2024-02-16T04:14:10;16.40;;;9.70;;
76752;SDS011;65687;51.308;16.916;2024-02-16T04:19:12;13.90;;;7.80;;
76752;SDS011;65687;51.308;16.916;2024-02-16T04:24:14;14.00;;;8.30;;
76752;SDS011;65687;51.308;16.916;2024-02-16T04:29:16;16.30;;;10.10;;
76752;SDS011;65687;51.308;16.916;2024-02-16T04:34:17;22.50;;;11.10;;
76752;SDS011;65687;51.308;16.916;2024-02-16T04:39:19;15.10;;;9.30;;
76752;SDS011;65687;51.308;16.916;2024-02-16T04:44:20;13.30;;;8.50;;
76752;SDS011;65687;51.308;16.916;2024-02-16T04:49:22;16.40;;;8.90;;
76752;SDS011;65687;51.308;16.916;2024-02-16T04:54:25;16.40;;;9.20;;
76752;SDS011;65687;51.308;16.916;2024-02-16T04:59:26;18.50;;;9.20;;
76752;SDS011;65687;51.308;16.916;2024-02-16T05:04:29;15.10;;;9.20;;
76752;SDS011;65687;51.308;16.916;2024-02-16T05:09:33;16.50;;;8.80;;
76752;SDS011;65687;51.308;16.916;2024-02-16T05:14:36;20.20;;;10.60;;
76752;SDS011;65687;51.308;16.916;2024-02-16T05:19:37;15.10;;;9.20;;
76752;SDS011;65687;51.308;16.916;2024-02-16T05:24:41;15.90;;;9.40;;
76752;SDS011;65687;51.308;16.916;2024-02-16T05:29:43;19.30;;;10.60;;
76752;SDS011;65687;51.308;16.916;2024-02-16T05:34:46;16.10;;;9.50;;
76752;SDS011;65687;51.308;16.916;2024-02-16T05:39:48;17.00;;;10.80;;
76752;SDS011;65687;51.308;16.916;2024-02-16T05:45:00;14.90;;;9.00;;
76752;SDS011;65687;51.308;16.916;2024-02-16T05:50:02;16.60;;;10.50;;
76752;SDS011;65687;51.308;16.916;2024-02-16T05:55:07;16.60;;;10.30;;
76752;SDS011;65687;51.308;16.916;2024-02-16T06:00:10;18.80;;;11.50;;
76752;SDS011;65687;51.308;16.916;2024-02-16T06:05:14;20.90;;;11.60;;
76752;SDS011;65687;51.308;16.916;2024-02-16T06:10:16;16.40;;;10.20;;
76752;SDS011;65687;51.308;16.916;2024-02-16T06:20:21;18.30;;;10.60;;
76752;SDS011;65687;51.308;16.916;2024-02-16T06:25:22;20.50;;;11.60;;
76752;SDS011;65687;51.308;16.916;2024-02-16T06:30:24;18.40;;;9.30;;
76752;SDS011;65687;51.308;16.916;2024-02-16T06:35:26;20.30;;;11.50;;
76752;SDS011;65687;51.308;16.916;2024-02-16T06:40:27;20.20;;;12.30;;
76752;SDS011;65687;51.308;16.916;2024-02-16T06:45:29;18.20;;;11.10;;
76752;SDS011;65687;51.308;16.916;2024-02-16T06:50:31;22.20;;;11.70;;
76752;SDS011;65687;51.308;16.916;2024-02-16T06:55:33;19.60;;;11.00;;
76752;SDS011;65687;51.308;16.916;2024-02-16T07:00:34;15.90;;;10.50;;
76752;SDS011;65687;51.308;16.916;2024-02-16T07:05:36;20.90;;;11.60;;
76752;SDS011;65687;51.308;16.916;2024-02-16T07:10:38;19.30;;;11.30;;
76752;SDS011;65687;51.308;16.916;2024-02-16T07:15:40;18.40;;;10.30;;
76752;SDS011;65687;51.308;16.916;2024-02-16T07:20:42;17.40;;;10.20;;
76752;SDS011;65687;51.308;16.916;2024-02-16T07:25:44;16.90;;;11.20;;
76752;SDS011;65687;51.308;16.916;2024-02-16T07:30:45;16.90;;;9.90;;
76752;SDS011;65687;51.308;16.916;2024-02-16T07:35:47;18.20;;;10.50;;
76752;SDS011;65687;51.308;16.916;2024-02-16T07:40:49;18.10;;;10.10;;
76752;SDS011;65687;51.308;16.916;2024-02-16T07:45:51;14.70;;;9.00;;
76752;SDS011;65687;51.308;16.916;2024-02-16T07:50:57;15.90;;;9.90;;
76752;SDS011;65687;51.308;16.916;2024-02-16T07:56:02;11.70;;;8.60;;
76752;SDS011;65687;51.308;16.916;2024-02-16T08:06:07;17.00;;;9.40;;
76752;SDS011;65687;51.308;16.916;2024-02-16T08:11:09;13.70;;;6.40;;
76752;SDS011;65687;51.308;16.916;2024-02-16T08:16:10;13.10;;;8.70;;
76752;SDS011;65687;51.308;16.916;2024-02-16T08:21:12;14.80;;;9.10;;
76752;SDS011;65687;51.308;16.916;2024-02-16T08:26:14;15.60;;;9.30;;
76752;SDS011;65687;51.308;16.916;2024-02-16T08:31:16;17.00;;;10.10;;
76752;SDS011;65687;51.308;16.916;2024-02-16T08:36:23;12.80;;;8.20;;
76752;SDS011;65687;51.308;16.916;2024-02-16T08:41:30;13.40;;;8.20;;
76752;SDS011;65687;51.308;16.916;2024-02-16T08:46:32;13.20;;;8.30;;
76752;SDS011;65687;51.308;16.916;2024-02-16T08:51:33;14.90;;;9.00;;
76752;SDS011;65687;51.308;16.916;2024-02-16T08:56:35;12.50;;;8.20;;
76752;SDS011;65687;51.308;16.916;2024-02-16T09:01:37;12.90;;;8.60;;
76752;SDS011;65687;51.308;16.916;2024-02-16T09:06:40;14.90;;;8.30;;
76752;SDS011;65687;51.308;16.916;2024-02-16T09:11:43;12.60;;;9.00;;
76752;SDS011;65687;51.308;16.916;2024-02-16T09:16:44;11.70;;;7.90;;
76752;SDS011;65687;51.308;16.916;2024-02-16T09:21:48;24.00;;;13.50;;
76752;SDS011;65687;51.308;16.916;2024-02-16T09:26:50;15.80;;;10.20;;
76752;SDS011;65687;51.308;16.916;2024-02-16T09:31:52;12.90;;;8.40;;
76752;SDS011;65687;51.308;16.916;2024-02-16T09:36:54;8.50;;;5.40;;
76752;SDS011;65687;51.308;16.916;2024-02-16T09:41:55;12.40;;;7.90;;
76752;SDS011;65687;51.308;16.916;2024-02-16T09:46:57;10.80;;;7.10;;
76752;SDS011;65687;51.308;16.916;2024-02-16T09:52:02;11.40;;;7.50;;
76752;SDS011;65687;51.308;16.916;2024-02-16T09:57:05;11.90;;;6.90;;
76752;SDS011;65687;51.308;16.916;2024-02-16T10:02:07;11.50;;;7.00;;
76752;SDS011;65687;51.308;16.916;2024-02-16T10:07:09;10.10;;;6.70;;
76752;SDS011;65687;51.308;16.916;2024-02-16T10:12:17;10.00;;;7.60;;
76752;SDS011;65687;51.308;16.916;2024-02-16T10:17:20;10.70;;;6.50;;
76752;SDS011;65687;51.308;16.916;2024-02-16T10:22:21;8.30;;;5.80;;
76752;SDS011;65687;51.308;16.916;2024-02-16T10:27:24;8.60;;;5.40;;
76752;SDS011;65687;51.308;16.916;2024-02-16T10:32:25;7.40;;;5.00;;
76752;SDS011;65687;51.308;16.916;2024-02-16T10:37:27;8.10;;;4.90;;
76752;SDS011;65687;51.308;16.916;2024-02-16T10:42:29;6.20;;;4.90;;
76752;SDS011;65687;51.308;16.916;2024-02-16T10:47:32;7.10;;;4.50;;
76752;SDS011;65687;51.308;16.916;2024-02-16T10:52:34;6.50;;;4.30;;
76752;SDS011;65687;51.308;16.916;2024-02-16T10:57:38;7.90;;;6.10;;
76752;SDS011;65687;51.308;16.916;2024-02-16T11:02:54;8.50;;;5.40;;
76752;SDS011;65687;51.308;16.916;2024-02-16T11:08:01;9.30;;;7.20;;
76752;SDS011;65687;51.308;16.916;2024-02-16T11:13:04;9.70;;;6.20;;
76752;SDS011;65687;51.308;16.916;2024-02-16T11:18:06;11.30;;;6.60;;
76752;SDS011;65687;51.308;16.916;2024-02-16T11:23:08;14.30;;;9.80;;
76752;SDS011;65687;51.308;16.916;2024-02-16T11:28:10;7.20;;;5.60;;
76752;SDS011;65687;51.308;16.916;2024-02-16T11:33:16;7.00;;;4.10;;
76752;SDS011;65687;51.308;16.916;2024-02-16T11:38:17;6.40;;;4.20;;
76752;SDS011;65687;51.308;16.916;2024-02-16T11:48:25;6.40;;;3.80;;
76752;SDS011;65687;51.308;16.916;2024-02-16T11:53:28;4.40;;;3.20;;
76752;SDS011;65687;51.308;16.916;2024-02-16T11:58:33;6.40;;;4.40;;
76752;SDS011;65687;51.308;16.916;2024-02-16T12:03:35;5.20;;;3.90;;
76752;SDS011;65687;51.308;16.916;2024-02-16T12:08:37;4.30;;;3.90;;
76752;SDS011;65687;51.308;16.916;2024-02-16T12:13:41;15.70;;;8.90;;
76752;SDS011;65687;51.308;16.916;2024-02-16T12:18:43;7.50;;;4.40;;
76752;SDS011;65687;51.308;16.916;2024-02-16T12:23:46;5.20;;;4.00;;
76752;SDS011;65687;51.308;16.916;2024-02-16T12:28:48;7.60;;;5.10;;
76752;SDS011;65687;51.308;16.916;2024-02-16T12:38:51;8.10;;;6.70;;
76752;SDS011;65687;51.308;16.916;2024-02-16T12:43:53;4.10;;;2.70;;
76752;SDS011;65687;51.308;16.916;2024-02-16T12:48:54;5.00;;;3.60;;
76752;SDS011;65687;51.308;16.916;2024-02-16T12:53:56;6.10;;;4.00;;
76752;SDS011;65687;51.308;16.916;2024-02-16T12:58:58;8.30;;;5.10;;
76752;SDS011;65687;51.308;16.916;2024-02-16T13:04:01;9.40;;;5.20;;
76752;SDS011;65687;51.308;16.916;2024-02-16T13:14:06;7.10;;;4.30;;
76752;SDS011;65687;51.308;16.916;2024-02-16T13:19:07;6.90;;;4.10;;
76752;SDS011;65687;51.308;16.916;2024-02-16T13:24:09;5.40;;;3.70;;
76752;SDS011;65687;51.308;16.916;2024-02-16T13:29:11;6.40;;;3.60;;
76752;SDS011;65687;51.308;16.916;2024-02-16T13:34:12;5.40;;;3.60;;
76752;SDS011;65687;51.308;16.916;2024-02-16T13:39:16;7.30;;;4.00;;
76752;SDS011;65687;51.308;16.916;2024-02-16T13:44:25;8.90;;;5.20;;
76752;SDS011;65687;51.308;16.916;2024-02-16T13:49:27;6.20;;;5.20;;
76752;SDS011;65687;51.308;16.916;2024-02-16T13:54:28;7.80;;;5.60;;
76752;SDS011;65687;51.308;16.916;2024-02-16T13:59:30;5.10;;;4.00;;
76752;SDS011;65687;51.308;16.916;2024-02-16T14:04:34;11.00;;;6.50;;
76752;SDS011;65687;51.308;16.916;2024-02-16T14:14:37;6.30;;;4.40;;
76752;SDS011;65687;51.308;16.916;2024-02-16T14:19:39;7.70;;;4.30;;
76752;SDS011;65687;51.308;16.916;2024-02-16T14:24:43;9.20;;;4.70;;
76752;SDS011;65687;51.308;16.916;2024-02-16T14:29:46;6.30;;;4.60;;
76752;SDS011;65687;51.308;16.916;2024-02-16T14:34:47;7.60;;;4.30;;
76752;SDS011;65687;51.308;16.916;2024-02-16T14:39:49;7.50;;;4.00;;
76752;SDS011;65687;51.308;16.916;2024-02-16T14:44:53;5.90;;;3.60;;
76752;SDS011;65687;51.308;16.916;2024-02-16T14:49:54;7.20;;;4.40;;
76752;SDS011;65687;51.308;16.916;2024-02-16T14:54:58;7.40;;;4.50;;
76752;SDS011;65687;51.308;16.916;2024-02-16T15:00:01;6.30;;;4.30;;
76752;SDS011;65687;51.308;16.916;2024-02-16T15:05:04;13.80;;;8.10;;
76752;SDS011;65687;51.308;16.916;2024-02-16T15:10:07;17.30;;;10.40;;
76752;SDS011;65687;51.308;16.916;2024-02-16T15:15:11;50.00;;;36.60;;
76752;SDS011;65687;51.308;16.916;2024-02-16T15:20:13;10.10;;;6.30;;
76752;SDS011;65687;51.308;16.916;2024-02-16T15:25:19;7.70;;;4.70;;
76752;SDS011;65687;51.308;16.916;2024-02-16T15:30:28;14.10;;;7.60;;
76752;SDS011;65687;51.308;16.916;2024-02-16T15:35:29;10.20;;;5.70;;
76752;SDS011;65687;51.308;16.916;2024-02-16T15:40:31;20.00;;;16.40;;
76752;SDS011;65687;51.308;16.916;2024-02-16T15:45:33;19.50;;;13.90;;
76752;SDS011;65687;51.308;16.916;2024-02-16T15:50:41;10.10;;;6.80;;
76752;SDS011;65687;51.308;16.916;2024-02-16T15:55:46;16.10;;;8.80;;
76752;SDS011;65687;51.308;16.916;2024-02-16T16:00:48;11.90;;;7.30;;
76752;SDS011;65687;51.308;16.916;2024-02-16T16:05:59;13.60;;;8.80;;
76752;SDS011;65687;51.308;16.916;2024-02-16T16:11:01;13.80;;;7.30;;
76752;SDS011;65687;51.308;16.916;2024-02-16T16:21:08;16.60;;;9.20;;
76752;SDS011;65687;51.308;16.916;2024-02-16T16:26:10;13.10;;;8.40;;
76752;SDS011;65687;51.308;16.916;2024-02-16T16:31:12;14.20;;;9.60;;
76752;SDS011;65687;51.308;16.916;2024-02-16T16:36:20;15.70;;;8.90;;
76752;SDS011;65687;51.308;16.916;2024-02-16T16:41:44;14.30;;;8.50;;
76752;SDS011;65687;51.308;16.916;2024-02-16T16:47:06;20.40;;;10.40;;
76752;SDS011;65687;51.308;16.916;2024-02-16T16:52:08;18.20;;;10.90;;
76752;SDS011;65687;51.308;16.916;2024-02-16T16:57:09;24.90;;;13.30;;
76752;SDS011;65687;51.308;16.916;2024-02-16T17:02:11;18.90;;;11.80;;
76752;SDS011;65687;51.308;16.916;2024-02-16T17:07:13;20.50;;;12.00;;
76752;SDS011;65687;51.308;16.916;2024-02-16T17:12:19;16.50;;;10.80;;
76752;SDS011;65687;51.308;16.916;2024-02-16T17:17:24;15.20;;;10.00;;
76752;SDS011;65687;51.308;16.916;2024-02-16T17:22:29;14.40;;;9.00;;
76752;SDS011;65687;51.308;16.916;2024-02-16T17:27:37;14.60;;;9.30;;
76752;SDS011;65687;51.308;16.916;2024-02-16T17:32:52;15.00;;;8.20;;
76752;SDS011;65687;51.308;16.916;2024-02-16T17:37:55;12.80;;;7.50;;
76752;SDS011;65687;51.308;16.916;2024-02-16T17:43:03;10.80;;;7.00;;
76752;SDS011;65687;51.308;16.916;2024-02-16T17:48:09;14.60;;;7.30;;
76752;SDS011;65687;51.308;16.916;2024-02-16T17:53:21;12.60;;;7.70;;
76752;SDS011;65687;51.308;16.916;2024-02-16T17:58:32;12.10;;;7.30;;
76752;SDS011;65687;51.308;16.916;2024-02-16T18:03:38;12.80;;;7.70;;
76752;SDS011;65687;51.308;16.916;2024-02-16T18:08:46;18.90;;;11.90;;
76752;SDS011;65687;51.308;16.916;2024-02-16T18:13:52;11.70;;;7.60;;
76752;SDS011;65687;51.308;16.916;2024-02-16T18:18:53;10.50;;;6.60;;
76752;SDS011;65687;51.308;16.916;2024-02-16T18:23:57;7.70;;;5.40;;
76752;SDS011;65687;51.308;16.916;2024-02-16T18:28:59;9.70;;;5.90;;
76752;SDS011;65687;51.308;16.916;2024-02-16T18:34:08;9.60;;;5.10;;
76752;SDS011;65687;51.308;16.916;2024-02-16T18:39:11;7.10;;;4.50;;
76752;SDS011;65687;51.308;16.916;2024-02-16T18:44:15;8.70;;;4.80;;
76752;SDS011;65687;51.308;16.916;2024-02-16T18:49:16;5.80;;;2.80;;
76752;SDS011;65687;51.308;16.916;2024-02-16T18:54:18;8.30;;;5.50;;
76752;SDS011;65687;51.308;16.916;2024-02-16T18:59:27;10.40;;;6.00;;
76752;SDS011;65687;51.308;16.916;2024-02-16T19:04:29;14.20;;;7.70;;
76752;SDS011;65687;51.308;16.916;2024-02-16T19:09:31;20.50;;;10.10;;
76752;SDS011;65687;51.308;16.916;2024-02-16T19:14:39;11.60;;;8.00;;
76752;SDS011;65687;51.308;16.916;2024-02-16T19:19:44;10.10;;;6.90;;
76752;SDS011;65687;51.308;16.916;2024-02-16T19:24:57;11.80;;;7.50;;
76752;SDS011;65687;51.308;16.916;2024-02-16T19:30:05;10.00;;;6.70;;
76752;SDS011;65687;51.308;16.916;2024-02-16T19:35:19;13.20;;;8.80;;
76752;SDS011;65687;51.308;16.916;2024-02-16T19:40:43;11.00;;;7.00;;
76752;SDS011;65687;51.308;16.916;2024-02-16T19:45:44;10.50;;;7.20;;
76752;SDS011;65687;51.308;16.916;2024-02-16T19:50:50;9.30;;;6.90;;
76752;SDS011;65687;51.308;16.916;2024-02-16T19:56:01;10.40;;;7.50;;
76752;SDS011;65687;51.308;16.916;2024-02-16T20:01:06;27.90;;;13.10;;
76752;SDS011;65687;51.308;16.916;2024-02-16T20:06:08;72.80;;;26.60;;
76752;SDS011;65687;51.308;16.916;2024-02-16T20:11:13;124.30;;;41.50;;
76752;SDS011;65687;51.308;16.916;2024-02-16T20:16:16;134.70;;;45.60;;
76752;SDS011;65687;51.308;16.916;2024-02-16T20:21:20;155.70;;;58.70;;
76752;SDS011;65687;51.308;16.916;2024-02-16T20:26:24;32.50;;;13.80;;
76752;SDS011;65687;51.308;16.916;2024-02-16T20:31:26;27.10;;;13.60;;
76752;SDS011;65687;51.308;16.916;2024-02-16T20:36:29;12.40;;;7.20;;
76752;SDS011;65687;51.308;16.916;2024-02-16T20:41:34;14.10;;;8.90;;
76752;SDS011;65687;51.308;16.916;2024-02-16T20:46:36;11.70;;;7.60;;
76752;SDS011;65687;51.308;16.916;2024-02-16T20:51:42;12.80;;;7.30;;
76752;SDS011;65687;51.308;16.916;2024-02-16T20:57:00;9.90;;;6.60;;
76752;SDS011;65687;51.308;16.916;2024-02-16T21:02:07;16.60;;;8.90;;
76752;SDS011;65687;51.308;16.916;2024-02-16T21:07:28;18.50;;;11.30;;
76752;SDS011;65687;51.308;16.916;2024-02-16T21:12:40;16.40;;;9.30;;
76752;SDS011;65687;51.308;16.916;2024-02-16T21:17:49;16.10;;;8.80;;
76752;SDS011;65687;51.308;16.916;2024-02-16T21:28:36;18.30;;;10.00;;
76752;SDS011;65687;51.308;16.916;2024-02-16T21:34:03;14.80;;;8.90;;
76752;SDS011;65687;51.308;16.916;2024-02-16T21:39:06;15.40;;;8.70;;
76752;SDS011;65687;51.308;16.916;2024-02-16T21:44:08;15.40;;;8.80;;
76752;SDS011;65687;51.308;16.916;2024-02-16T21:49:16;13.10;;;8.50;;
76752;SDS011;65687;51.308;16.916;2024-02-16T21:54:24;13.80;;;8.20;;
76752;SDS011;65687;51.308;16.916;2024-02-16T21:59:29;13.60;;;7.50;;
76752;SDS011;65687;51.308;16.916;2024-02-16T22:04:40;13.70;;;8.30;;
76752;SDS011;65687;51.308;16.916;2024-02-16T22:09:48;14.10;;;8.20;;
76752;SDS011;65687;51.308;16.916;2024-02-16T22:14:56;14.50;;;8.30;;
76752;SDS011;65687;51.308;16.916;2024-02-16T22:20:00;12.60;;;8.20;;
76752;SDS011;65687;51.308;16.916;2024-02-16T22:25:05;13.40;;;7.90;;
76752;SDS011;65687;51.308;16.916;2024-02-16T22:30:13;10.60;;;6.60;;
76752;SDS011;65687;51.308;16.916;2024-02-16T22:35:18;12.90;;;7.60;;
76752;SDS011;65687;51.308;16.916;2024-02-16T22:40:20;11.40;;;7.00;;
76752;SDS011;65687;51.308;16.916;2024-02-16T22:45:21;8.80;;;6.30;;
76752;SDS011;65687;51.308;16.916;2024-02-16T22:50:26;10.10;;;6.50;;
76752;SDS011;65687;51.308;16.916;2024-02-16T22:55:36;8.50;;;6.10;;
76752;SDS011;65687;51.308;16.916;2024-02-16T23:00:47;9.90;;;6.00;;
76752;SDS011;65687;51.308;16.916;2024-02-16T23:05:49;8.90;;;6.00;;
76752;SDS011;65687;51.308;16.916;2024-02-16T23:10:58;8.40;;;6.00;;
76752;SDS011;65687;51.308;16.916;2024-02-16T23:16:03;7.60;;;5.60;;
76752;SDS011;65687;51.308;16.916;2024-02-16T23:21:10;9.00;;;5.80;;
76752;SDS011;65687;51.308;16.916;2024-02-16T23:26:12;8.00;;;5.60;;
76752;SDS011;65687;51.308;16.916;2024-02-16T23:31:31;9.60;;;5.90;;
76752;SDS011;65687;51.308;16.916;2024-02-16T23:36:34;7.80;;;5.80;;
76752;SDS011;65687;51.308;16.916;2024-02-16T23:41:41;10.40;;;6.30;;
76752;SDS011;65687;51.308;16.916;2024-02-16T23:46:45;8.70;;;5.90;;
76752;SDS011;65687;51.308;16.916;2024-02-16T23:51:52;10.60;;;6.90;;
76752;SDS011;65687;51.308;16.916;2024-02-16T23:56:53;10.10;;;6.50;;
